Terminal Aerodrome Forecast
Issued by NWS Memphis, TN

Home | Current Version | Previous Version | Text Only | Print | Product List | Glossary On
Versions: 1 2 3 4 5 6 7 8 9 10 11 12 13 14 15 16 17 18 19 20 21
000
FTUS44 KMEG 042134 AAA
TAFMKL
TAF AMD
KMKL 042134Z 0422/0518 24006KT P6SM VCTS BKN015CB OVC120
     FM050000 VRB02KT P6SM VCSH BKN020 OVC120
     FM050200 VRB02KT P6SM SCT020 OVC150
      TEMPO 0502/0504 BKN020 OVC150
     FM050600 VRB02KT 5SM BR BKN012 OVC020
      TEMPO 0509/0513 2SM BR OVC007
     FM051600 23006KT P6SM BKN020 OVC035=

USA.gov is the U.S. government's official web portal to all federal, state and local government web resources and services.